Aeroporto :
LOGIN :

Iscrizione | Disclaimer

   EN    FR    IT 

 










Sommario :    VFR   VFR Marginale   IFR   IFR Intensivo   IFR Molto Intensivo
Visibilità : 
Base nubi : 
>= 8 km
>= 3000ft
5 / 8 km
1000 / 3000 ft
1500m / 5 km
500 / 1000 ft
800 / 1500m
200 / 500 ft
< 800m
< 200 ft
Simboli :   Temporali  Nebbia  Neve Forte  Precipitazioni Forti  Vento > 20 kt
SIGMETs :   Varie  Temporali  Ghiacco  Turbolenza  Onda orograficha  Ceneri Vulcaniche







- Altitudine del aeroporto : 106 ft
- Codice IATA : NRN


EDLV - Weeze

ULTIMO METAR :
  • 172150Z 25007KT 9999 BKN034 17/16 Q1007

METARs OBSOLETI :
  • 172120Z 22008KT 200V260 8000 -RA SCT008 BKN030 17/16 Q1007
  • 172050Z 24010KT 200V270 9000 BKN008 BKN028 18/16 Q1007

TAF AMD TAF EDLV
Valido dal 17 a 20 ore il 18 a 18 ore UTC


172050Z 1720/1818 20007KT 9999 BKN030
TEMPO 1720/1724 BKN008
BECMG 1800/1803 RA BKN012
TEMPO 1802/1810 4000 RADZ BR BKN008
BECMG 1810/1812 NSW BKN020
Nessun NOTAM noto per questo aeroporto.



MetMap, La meteo Aeronautica in un colpo d'occhio ! - Copyright ORBIFLY Dicembre 2007 - Disclaimer

ORBIFLY MET'MAP TEAM :

Programmazione e sviluppo : Alexandra Zaïnal
Concezione e sviluppo : Baudouin d'Aumeries
Co-Programmazione e sviluppo : Marc-Olivier Méhu
Supporto tecnico e logistico : Manuel Goepfert
Aiuto per la traduzione : Arnaldo La Scala

Contatto : metmap@orbifly.com




FONTI E CREDITI :

   NOAA